Observation data for Saint Lawrence on 12/07/2019      Previous  Date       Current Mesonet Observations  Soil Data  Daily Summary Page  Observations in Plain Language
KST1 070600Z 11007KT 06/M01 A3032 RMK A01 T00551007  RH  065%=      5-min Rain = 0
KST1 070605Z 11006KT 05/M01 A3032 RMK A01 T00531008  RH  065%=      5-min Rain = 0
KST1 070610Z 10006KT 05/M01 A3033 RMK A01 T00511010  RH  066%=      5-min Rain = 0
KST1 070615Z 10006KT 05/M01 A3033 RMK A01 T00511010  RH  065%=      5-min Rain = 0
KST1 070620Z 10006KT 05/M01 A3032 RMK A01 T00511009  RH  066%=      5-min Rain = 0
KST1 070625Z 09005KT 05/M01 A3032 RMK A01 T00521007  RH  066%=      5-min Rain = 0
KST1 070630Z 09005KT 05/M01 A3032 RMK A01 T00511007  RH  067%=      5-min Rain = 0
KST1 070635Z 10005KT 05/M01 A3032 RMK A01 T00501008  RH  067%=      5-min Rain = 0
KST1 070640Z 11005KT 05/M01 A3033 RMK A01 T00461011  RH  067%=      5-min Rain = 0
KST1 070645Z 11004KT 04/M01 A3033 RMK A01 T00431012  RH  068%=      5-min Rain = 0
KST1 070650Z 11004KT 04/M01 A3032 RMK A01 T00431010  RH  069%=      5-min Rain = 0
KST1 070655Z 12005KT 04/M01 A3032 RMK A01 T00421010  RH  069%=      5-min Rain = 0
KST1 070700Z 12005KT 04/M01 A3032 RMK A01 T00411011  RH  070%=      5-min Rain = 0
KST1 070705Z 12005KT 04/M01 A3032 RMK A01 T00381011  RH  071%=      5-min Rain = 0
KST1 070710Z 12005KT 04/M01 A3032 RMK A01 T00361012  RH  072%=      5-min Rain = 0
KST1 070715Z 12005KT 04/M01 A3032 RMK A01 T00361011  RH  072%=      5-min Rain = 0
KST1 070720Z 11005KT 03/M01 A3032 RMK A01 T00341011  RH  073%=      5-min Rain = 0
KST1 070725Z 11005KT 03/M01 A3032 RMK A01 T00341011  RH  073%=      5-min Rain = 0
KST1 070730Z 11005KT 03/M01 A3032 RMK A01 T00341010  RH  073%=      5-min Rain = 0
KST1 070735Z 11005KT 04/M01 A3032 RMK A01 T00381007  RH  074%=      5-min Rain = 0
KST1 070740Z 12004KT 04/M01 A3032 RMK A01 T00411005  RH  073%=      5-min Rain = 0
KST1 070745Z 12004KT 04/M01 A3032 RMK A01 T00411006  RH  072%=      5-min Rain = 0
KST1 070750Z 12004KT 04/M01 A3032 RMK A01 T00401006  RH  073%=      5-min Rain = 0
KST1 070755Z 13004KT 04/M01 A3032 RMK A01 T00391006  RH  073%=      5-min Rain = 0
KST1 070800Z 13004KT 04/M01 A3032 RMK A01 T00371006  RH  074%=      5-min Rain = 0
KST1 070805Z 13004KT 04/M01 A3032 RMK A01 T00361006  RH  075%=      5-min Rain = 0
KST1 070810Z 13004KT 04/M00 A3032 RMK A01 T00371003  RH  076%=      5-min Rain = 0
KST1 070815Z 13004KT 04/M00 A3032 RMK A01 T00381003  RH  076%=      5-min Rain = 0
KST1 070820Z 14004KT 04/M00 A3032 RMK A01 T00371003  RH  076%=      5-min Rain = 0
KST1 070825Z 14004KT 04/M00 A3032 RMK A01 T00381001  RH  077%=      5-min Rain = 0
KST1 070830Z 14004KT 04/M00 A3032 RMK A01 T00361002  RH  077%=      5-min Rain = 0
KST1 070835Z 13004KT 03/M00 A3032 RMK A01 T00341002  RH  078%=      5-min Rain = 0
KST1 070840Z 14004KT 03/M00 A3032 RMK A01 T00331002  RH  079%=      5-min Rain = 0
KST1 070845Z 14004KT 03/M00 A3032 RMK A01 T00321002  RH  079%=      5-min Rain = 0
KST1 070850Z 15003KT 03/M00 A3032 RMK A01 T00311004  RH  079%=      5-min Rain = 0
KST1 070855Z 15002KT 03/M01 A3032 RMK A01 T00301005  RH  078%=      5-min Rain = 0
KST1 070900Z 15003KT 03/M01 A3031 RMK A01 T00281006  RH  079%=      5-min Rain = 0
KST1 070905Z 14003KT 03/M00 A3031 RMK A01 T00291001  RH  081%=      5-min Rain = 0
KST1 070910Z 13003KT 03/M00 A3031 RMK A01 T00291002  RH  081%=      5-min Rain = 0
KST1 070915Z 13003KT 03/M00 A3031 RMK A01 T00281001  RH  082%=      5-min Rain = 0
KST1 070920Z 12004KT 03/M00 A3031 RMK A01 T00251004  RH  082%=      5-min Rain = 0
KST1 070925Z 11004KT 03/M00 A3031 RMK A01 T00261003  RH  082%=      5-min Rain = 0
KST1 070930Z 11004KT 03/M01 A3031 RMK A01 T00251005  RH  082%=      5-min Rain = 0
KST1 070935Z 11005KT 03/M00 A3031 RMK A01 T00271003  RH  081%=      5-min Rain = 0
KST1 070940Z 09006KT 02/M01 A303 RMK A01 T00221010  RH  080%=      5-min Rain = 0
KST1 070945Z 09007KT 02/M01 A303 RMK A01 T00231005  RH  083%=      5-min Rain = 0
KST1 070950Z 10007KT 03/00 A303 RMK A01 T00330004  RH  082%=      5-min Rain = 0
KST1 070955Z 10007KT 04/00 A303 RMK A01 T00350001  RH  079%=      5-min Rain = 0
KST1 071000Z 11006KT 03/M01 A303 RMK A01 T00281009  RH  078%=      5-min Rain = 0
KST1 071005Z 11006KT 02/M01 A303 RMK A01 T00221013  RH  078%=      5-min Rain = 0
KST1 071010Z 11006KT 02/M01 A303 RMK A01 T00211012  RH  080%=      5-min Rain = 0
KST1 071015Z 11006KT 02/M01 A303 RMK A01 T00211011  RH  080%=      5-min Rain = 0
KST1 071020Z 11006KT 02/M01 A303 RMK A01 T00201010  RH  081%=      5-min Rain = 0
KST1 071025Z 11006KT 02/M01 A303 RMK A01 T00201010  RH  081%=      5-min Rain = 0
KST1 071030Z 11006KT 02/M01 A303 RMK A01 T00181012  RH  082%=      5-min Rain = 0
KST1 071035Z 11006KT 02/M01 A303 RMK A01 T00151013  RH  082%=      5-min Rain = 0
KST1 071040Z 11006KT 01/M01 A303 RMK A01 T00141014  RH  082%=      5-min Rain = 0
KST1 071045Z 11005KT 01/M02 A303 RMK A01 T00131016  RH  082%=      5-min Rain = 0
KST1 071050Z 11005KT 01/M02 A303 RMK A01 T00121016  RH  082%=      5-min Rain = 0
KST1 071055Z 12004KT 01/M02 A303 RMK A01 T00111016  RH  083%=      5-min Rain = 0
KST1 071100Z 12004KT 01/M02 A303 RMK A01 T00111016  RH  083%=      5-min Rain = 0
KST1 071105Z 12004KT 01/M02 A303 RMK A01 T00111015  RH  083%=      5-min Rain = 0
KST1 071110Z 13004KT 01/M01 A303 RMK A01 T00121014  RH  084%=      5-min Rain = 0
KST1 071115Z 13004KT 01/M01 A303 RMK A01 T00141011  RH  085%=      5-min Rain = 0
KST1 071120Z 14004KT 02/M01 A303 RMK A01 T00161008  RH  085%=      5-min Rain = 0
KST1 071125Z 14004KT 02/M01 A303 RMK A01 T00171006  RH  086%=      5-min Rain = 0
KST1 071130Z 14004KT 02/M01 A303 RMK A01 T00171005  RH  086%=      5-min Rain = 0
KST1 071135Z 14004KT 02/M01 A303 RMK A01 T00171005  RH  086%=      5-min Rain = 0
KST1 071140Z 14005KT 02/M00 A303 RMK A01 T00191002  RH  087%=      5-min Rain = 0
KST1 071145Z 13005KT 02/M00 A3029 RMK A01 T00191002  RH  087%=      5-min Rain = 0
KST1 071150Z 12006KT 02/M01 A3029 RMK A01 T00161005  RH  087%=      5-min Rain = 0
KST1 071155Z 11006KT 02/M01 A3029 RMK A01 T00151006  RH  087%=      5-min Rain = 0
KST1 071200Z 11006KT 02/M00 A3029 RMK A01 T00161004  RH  087%=      5-min Rain = 0
KST1 071205Z 11007KT 02/M00 A3028 RMK A01 T00181004  RH  087%=      5-min Rain = 0
KST1 071210Z 11006KT 02/M01 A3029 RMK A01 T00161006  RH  086%=      5-min Rain = 0
KST1 071215Z 12007KT 01/M01 A3028 RMK A01 T00131010  RH  086%=      5-min Rain = 0
KST1 071220Z 11008KT 01/M01 A3028 RMK A01 T00121010  RH  086%=      5-min Rain = 0
KST1 071225Z 11008KT 01/M01 A3027 RMK A01 T00131009  RH  087%=      5-min Rain = 0
KST1 071230Z 11008KT 01/M01 A3028 RMK A01 T00121010  RH  086%=      5-min Rain = 0
KST1 071235Z 11007KT 01/M01 A3028 RMK A01 T00121009  RH  086%=      5-min Rain = 0
KST1 071240Z 11006KT 01/M01 A3029 RMK A01 T00121011  RH  086%=      5-min Rain = 0
KST1 071245Z 12006KT 01/M01 A3029 RMK A01 T00111011  RH  086%=      5-min Rain = 0
KST1 071250Z 13006KT 01/M01 A3029 RMK A01 T00131009  RH  087%=      5-min Rain = 0
KST1 071255Z 14005KT 02/M01 A303 RMK A01 T00151007  RH  087%=      5-min Rain = 0
KST1 071300Z 14004KT 02/M00 A303 RMK A01 T00181004  RH  086%=      5-min Rain = 0
KST1 071305Z 13004KT 02/M01 A303 RMK A01 T00151010  RH  085%=      5-min Rain = 0
KST1 071310Z 11003KT 01/M01 A303 RMK A01 T00141010  RH  085%=      5-min Rain = 0
KST1 071315Z 11003KT 01/M01 A303 RMK A01 T00131010  RH  086%=      5-min Rain = 0
KST1 071320Z 11003KT 01/M01 A303 RMK A01 T00091014  RH  085%=      5-min Rain = 0
KST1 071325Z 11003KT 01/M02 A3029 RMK A01 T00081016  RH  085%=      5-min Rain = 0
KST1 071330Z 13002KT 01/M02 A303 RMK A01 T00061018  RH  085%=      5-min Rain = 0
KST1 071335Z 14003KT 00/M02 A303 RMK A01 T00041020  RH  085%=      5-min Rain = 0
KST1 071340Z 15003KT 01/M01 A303 RMK A01 T00091014  RH  086%=      5-min Rain = 0
KST1 071345Z 15004KT 02/M01 A303 RMK A01 T00151007  RH  087%=      5-min Rain = 0
KST1 071350Z 16004KT 02/M00 A303 RMK A01 T00181004  RH  087%=      5-min Rain = 0
KST1 071355Z 15004KT 02/M01 A303 RMK A01 T00191005  RH  085%=      5-min Rain = 0
KST1 071400Z 14004KT 02/M01 A303 RMK A01 T00191008  RH  083%=      5-min Rain = 0
KST1 071405Z 14004KT 02/M01 A303 RMK A01 T00201006  RH  084%=      5-min Rain = 0
KST1 071410Z 14004KT 02/M01 A303 RMK A01 T00181006  RH  085%=      5-min Rain = 0
KST1 071415Z 14005KT 02/M01 A303 RMK A01 T00171007  RH  085%=      5-min Rain = 0
KST1 071420Z 15005KT 02/M00 A303 RMK A01 T00191003  RH  086%=      5-min Rain = 0
KST1 071425Z 16004KT 03/00 A3031 RMK A01 T00280004  RH  085%=      5-min Rain = 0
KST1 071430Z 16005KT 03/00 A303 RMK A01 T00310002  RH  082%=      5-min Rain = 0
KST1 071435Z 16006KT 04/01 A303 RMK A01 T00350005  RH  082%=      5-min Rain = 0
KST1 071440Z 16006KT 04/01 A303 RMK A01 T00400007  RH  080%=      5-min Rain = 0
KST1 071445Z 16006KT 05/01 A303 RMK A01 T00450009  RH  079%=      5-min Rain = 0
KST1 071450Z 16007KT 05/01 A303 RMK A01 T00500011  RH  077%=      5-min Rain = 0
KST1 071455Z 16007KT 05/01 A303 RMK A01 T00540012  RH  075%=      5-min Rain = 0
KST1 071500Z 17007KT 06/01 A303 RMK A01 T00560012  RH  074%=      5-min Rain = 0
KST1 071505Z 16008KT 06/01 A303 RMK A01 T00590012  RH  073%=      5-min Rain = 0
KST1 071510Z 16009KT 06/01 A3029 RMK A01 T00620013  RH  072%=      5-min Rain = 0
KST1 071515Z 16008KT 06/01 A3029 RMK A01 T00640013  RH  071%=      5-min Rain = 0
KST1 071520Z 15010KT 07/01 A3029 RMK A01 T00670014  RH  070%=      5-min Rain = 0
KST1 071525Z 16008KT 07/02 A3029 RMK A01 T00700015  RH  069%=      5-min Rain = 0
KST1 071530Z 16009KT 07/02 A303 RMK A01 T00730017  RH  068%=      5-min Rain = 0
KST1 071535Z 16008KT 08/02 A303 RMK A01 T00800019  RH  066%=      5-min Rain = 0
KST1 071540Z 16008KT 09/02 A303 RMK A01 T00870020  RH  064%=      5-min Rain = 0
KST1 071545Z 17009KT 09/02 A303 RMK A01 T00890019  RH  062%=      5-min Rain = 0
KST1 071550Z 16010KT 09/02 A303 RMK A01 T00910018  RH  061%=      5-min Rain = 0
KST1 071555Z 17010KT 09/02 A303 RMK A01 T00940019  RH  060%=      5-min Rain = 0
KST1 071600Z 17010KT 10/02 A303 RMK A01 T00980019  RH  058%=      5-min Rain = 0
KST1 071605Z 17010KT 10/02 A303 RMK A01 T01010019  RH  057%=      5-min Rain = 0
KST1 071610Z 16010KT 10/02 A303 RMK A01 T01030017  RH  056%=      5-min Rain = 0
KST1 071615Z 16010KT 11/02 A303 RMK A01 T01060017  RH  055%=      5-min Rain = 0
KST1 071620Z 17009KT 11/02 A303 RMK A01 T01100018  RH  054%=      5-min Rain = 0
KST1 071625Z 16009KT 11/02 A303 RMK A01 T01130018  RH  052%=      5-min Rain = 0
KST1 071630Z 16010KT 12/02 A303 RMK A01 T01150016  RH  051%=      5-min Rain = 0
KST1 071635Z 16010KT 12/02 A303 RMK A01 T01180015  RH  050%=      5-min Rain = 0
KST1 071640Z 16009KT 12/02 A303 RMK A01 T01220017  RH  049%=      5-min Rain = 0
KST1 071645Z 16009KT 13/02 A303 RMK A01 T01250018  RH  048%=      5-min Rain = 0
KST1 071650Z 16009KT 13/02 A303 RMK A01 T01280018  RH  048%=      5-min Rain = 0
KST1 071655Z 16009KT 13/02 A3029 RMK A01 T01310018  RH  046%=      5-min Rain = 0
KST1 071700Z 16008KT 14/02 A3029 RMK A01 T01360018  RH  045%=      5-min Rain = 0
KST1 071705Z 16009KT 14/02 A3029 RMK A01 T01370015  RH  044%=      5-min Rain = 0
KST1 071710Z 16010KT 14/01 A3029 RMK A01 T01390014  RH  043%=      5-min Rain = 0
KST1 071715Z 16010KT 14/01 A3029 RMK A01 T01440013  RH  042%=      5-min Rain = 0
KST1 071720Z 16009KT 15/01 A3029 RMK A01 T01470013  RH  041%=      5-min Rain = 0
KST1 071725Z 17010G15KT 15/01 A3029 RMK A01 T01470012  RH  040%=      5-min Rain = 0
KST1 071730Z 17011KT 15/01 A3028 RMK A01 T01490012  RH  040%=      5-min Rain = 0
KST1 071735Z 17011KT 15/01 A3028 RMK A01 T01530012  RH  039%=      5-min Rain = 0
KST1 071740Z 16011KT 16/01 A3028 RMK A01 T01550012  RH  038%=      5-min Rain = 0
KST1 071745Z 18010KT 16/01 A3027 RMK A01 T01560013  RH  038%=      5-min Rain = 0
KST1 071750Z 19012KT 16/01 A3027 RMK A01 T01560012  RH  038%=      5-min Rain = 0
KST1 071755Z 18011KT 16/01 A3027 RMK A01 T01570013  RH  038%=      5-min Rain = 0
KST1 071800Z 18011KT 16/01 A3026 RMK A01 T01570013  RH  038%=      5-min Rain = 0
KST1 071805Z 18011KT 16/01 A3026 RMK A01 T01590014  RH  038%=      5-min Rain = 0
KST1 071810Z 17011KT 16/01 A3026 RMK A01 T01600013  RH  037%=      5-min Rain = 0
KST1 071815Z 17010KT 16/01 A3025 RMK A01 T01610014  RH  037%=      5-min Rain = 0
KST1 071820Z 19009KT 16/01 A3025 RMK A01 T01640014  RH  037%=      5-min Rain = 0
KST1 071825Z 17012KT 17/01 A3025 RMK A01 T01660014  RH  036%=      5-min Rain = 0
KST1 071830Z 17011KT 17/02 A3024 RMK A01 T01670015  RH  036%=      5-min Rain = 0
KST1 071835Z 18011KT 17/02 A3024 RMK A01 T01700015  RH  036%=      5-min Rain = 0
KST1 071840Z 17011G17KT 17/02 A3023 RMK A01 T01710015  RH  035%=      5-min Rain = 0
KST1 071845Z 17010G16KT 18/02 A3023 RMK A01 T01760017  RH  035%=      5-min Rain = 0
KST1 071850Z 17012KT 17/02 A3022 RMK A01 T01740015  RH  035%=      5-min Rain = 0
KST1 071855Z 18012KT 18/02 A3022 RMK A01 T01780016  RH  034%=      5-min Rain = 0
KST1 071900Z 18012KT 18/02 A3022 RMK A01 T01770015  RH  034%=      5-min Rain = 0
KST1 071905Z 17012KT 18/02 A3021 RMK A01 T01780016  RH  034%=      5-min Rain = 0
KST1 071910Z 18011KT 18/02 A3021 RMK A01 T01810016  RH  033%=      5-min Rain = 0
KST1 071915Z 18011G17KT 18/02 A302 RMK A01 T01810016  RH  033%=      5-min Rain = 0
KST1 071920Z 19010KT 18/02 A302 RMK A01 T01820016  RH  033%=      5-min Rain = 0
KST1 071925Z 17010G15KT 18/02 A302 RMK A01 T01780016  RH  034%=      5-min Rain = 0
KST1 071930Z 16012G17KT 19/02 A3019 RMK A01 T01860017  RH  033%=      5-min Rain = 0
KST1 071935Z 18011KT 19/01 A3019 RMK A01 T01850014  RH  032%=      5-min Rain = 0
KST1 071940Z 19010G20KT 19/02 A3019 RMK A01 T01870016  RH  032%=      5-min Rain = 0
KST1 071945Z 18010G15KT 18/02 A3019 RMK A01 T01820015  RH  033%=      5-min Rain = 0
KST1 071950Z 19011KT 18/01 A3019 RMK A01 T01790014  RH  033%=      5-min Rain = 0
KST1 071955Z 18011KT 18/02 A3018 RMK A01 T01820015  RH  033%=      5-min Rain = 0
KST1 072000Z 18010KT 19/02 A3018 RMK A01 T01860017  RH  033%=      5-min Rain = 0
KST1 072005Z 17011KT 19/02 A3017 RMK A01 T01890017  RH  032%=      5-min Rain = 0
KST1 072010Z 17010KT 19/02 A3017 RMK A01 T01890017  RH  032%=      5-min Rain = 0
KST1 072015Z 18010G16KT 19/02 A3016 RMK A01 T01860017  RH  032%=      5-min Rain = 0
KST1 072020Z 17011KT 19/02 A3016 RMK A01 T01880015  RH  032%=      5-min Rain = 0
KST1 072025Z 19010KT 19/02 A3016 RMK A01 T01890016  RH  032%=      5-min Rain = 0
KST1 072030Z 19010KT 19/02 A3016 RMK A01 T01890016  RH  032%=      5-min Rain = 0
KST1 072035Z 17010KT 19/02 A3015 RMK A01 T01880016  RH  032%=      5-min Rain = 0
KST1 072040Z 19011KT 19/02 A3015 RMK A01 T01910016  RH  031%=      5-min Rain = 0
KST1 072045Z 18009KT 19/02 A3015 RMK A01 T01920016  RH  031%=      5-min Rain = 0
KST1 072050Z 18011KT 19/02 A3015 RMK A01 T01910016  RH  031%=      5-min Rain = 0
KST1 072055Z 18009KT 19/02 A3015 RMK A01 T01910016  RH  031%=      5-min Rain = 0
KST1 072100Z 18010KT 20/02 A3015 RMK A01 T01970017  RH  031%=      5-min Rain = 0
KST1 072105Z 19009KT 20/02 A3015 RMK A01 T01950017  RH  031%=      5-min Rain = 0
KST1 072110Z 19010KT 19/02 A3015 RMK A01 T01920015  RH  031%=      5-min Rain = 0
KST1 072115Z 19009KT 19/02 A3015 RMK A01 T01900015  RH  031%=      5-min Rain = 0
KST1 072120Z 19009KT 19/02 A3015 RMK A01 T01880015  RH  032%=      5-min Rain = 0
KST1 072125Z 19009KT 19/02 A3015 RMK A01 T01870015  RH  032%=      5-min Rain = 0
KST1 072130Z 18009KT 19/02 A3014 RMK A01 T01920016  RH  031%=      5-min Rain = 0
KST1 072135Z 19009KT 20/02 A3014 RMK A01 T01960017  RH  031%=      5-min Rain = 0
KST1 072140Z 19010KT 20/02 A3014 RMK A01 T01970016  RH  030%=      5-min Rain = 0
KST1 072145Z 20010KT 20/02 A3014 RMK A01 T01970015  RH  030%=      5-min Rain = 0
KST1 072150Z 19009KT 20/02 A3013 RMK A01 T01970015  RH  030%=      5-min Rain = 0
KST1 072155Z 19010KT 20/01 A3013 RMK A01 T01960014  RH  030%=      5-min Rain = 0
KST1 072200Z 19010KT 19/01 A3013 RMK A01 T01940014  RH  030%=      5-min Rain = 0
KST1 072205Z 19010KT 20/01 A3012 RMK A01 T01950014  RH  030%=      5-min Rain = 0
KST1 072210Z 19009KT 20/02 A3012 RMK A01 T01960015  RH  030%=      5-min Rain = 0
KST1 072215Z 19011KT 20/01 A3012 RMK A01 T01950014  RH  030%=      5-min Rain = 0
KST1 072220Z 19010KT 19/01 A3012 RMK A01 T01940014  RH  030%=      5-min Rain = 0
KST1 072225Z 19010KT 19/02 A3012 RMK A01 T01940015  RH  031%=      5-min Rain = 0
KST1 072230Z 19010KT 19/01 A3013 RMK A01 T01920014  RH  031%=      5-min Rain = 0
KST1 072235Z 19010KT 19/01 A3013 RMK A01 T01920014  RH  031%=      5-min Rain = 0
KST1 072240Z 19010KT 19/02 A3013 RMK A01 T01920015  RH  031%=      5-min Rain = 0
KST1 072245Z 19008KT 19/02 A3013 RMK A01 T01930015  RH  031%=      5-min Rain = 0
KST1 072250Z 19009KT 19/02 A3012 RMK A01 T01910015  RH  031%=      5-min Rain = 0
KST1 072255Z 19010G15KT 19/02 A3012 RMK A01 T01900015  RH  031%=      5-min Rain = 0
KST1 072300Z 19010KT 19/02 A3012 RMK A01 T01890015  RH  032%=      5-min Rain = 0
KST1 072305Z 19009KT 19/02 A3012 RMK A01 T01910016  RH  031%=      5-min Rain = 0
KST1 072310Z 19009KT 19/02 A3012 RMK A01 T01910015  RH  031%=      5-min Rain = 0
KST1 072315Z 19011KT 19/02 A3012 RMK A01 T01890015  RH  032%=      5-min Rain = 0
KST1 072320Z 19011KT 19/02 A3012 RMK A01 T01880015  RH  032%=      5-min Rain = 0
KST1 072325Z 19010KT 19/02 A3012 RMK A01 T01860016  RH  032%=      5-min Rain = 0
KST1 072330Z 19010KT 18/02 A3012 RMK A01 T01840016  RH  033%=      5-min Rain = 0
KST1 072335Z 18009KT 18/02 A3012 RMK A01 T01810015  RH  033%=      5-min Rain = 0
KST1 072340Z 19009KT 18/02 A3012 RMK A01 T01780015  RH  034%=      5-min Rain = 0
KST1 072345Z 19009KT 18/02 A3012 RMK A01 T01760015  RH  034%=      5-min Rain = 0
KST1 072350Z 19008KT 17/02 A3012 RMK A01 T01740015  RH  035%=      5-min Rain = 0
KST1 072355Z 19008KT 17/02 A3012 RMK A01 T01710015  RH  035%=      5-min Rain = 0
KST1 080000Z 19008KT 17/02 A3012 RMK A01 T01690015  RH  036%=      5-min Rain = 0
KST1 080005Z 19008KT 17/02 A3012 RMK A01 T01680015  RH  036%=      5-min Rain = 0
KST1 080010Z 19008KT 16/01 A3012 RMK A01 T01630014  RH  037%=      5-min Rain = 0
KST1 080015Z 19008KT 16/01 A3012 RMK A01 T01600014  RH  038%=      5-min Rain = 0
KST1 080020Z 18007KT 16/01 A3012 RMK A01 T01550013  RH  039%=      5-min Rain = 0
KST1 080025Z 18008KT 15/01 A3012 RMK A01 T01520013  RH  039%=      5-min Rain = 0
KST1 080030Z 18008KT 15/01 A3012 RMK A01 T01520014  RH  039%=      5-min Rain = 0
KST1 080035Z 18008KT 15/01 A3011 RMK A01 T01500014  RH  040%=      5-min Rain = 0
KST1 080040Z 18008KT 15/01 A3011 RMK A01 T01470013  RH  041%=      5-min Rain = 0
KST1 080045Z 18007KT 14/01 A3011 RMK A01 T01430013  RH  041%=      5-min Rain = 0
KST1 080050Z 18007KT 14/01 A3011 RMK A01 T01390012  RH  042%=      5-min Rain = 0
KST1 080055Z 18007KT 14/01 A3011 RMK A01 T01360011  RH  043%=      5-min Rain = 0
KST1 080100Z 18007KT 13/01 A3011 RMK A01 T01330011  RH  044%=      5-min Rain = 0
KST1 080105Z 18007KT 13/01 A3011 RMK A01 T01310010  RH  044%=      5-min Rain = 0
KST1 080110Z 17007KT 13/01 A3011 RMK A01 T01270009  RH  045%=      5-min Rain = 0
KST1 080115Z 17007KT 12/01 A3012 RMK A01 T01230008  RH  046%=      5-min Rain = 0
KST1 080120Z 16007KT 12/01 A3012 RMK A01 T01200008  RH  047%=      5-min Rain = 0
KST1 080125Z 16007KT 12/01 A3012 RMK A01 T01200008  RH  047%=      5-min Rain = 0
KST1 080130Z 16008KT 12/01 A3012 RMK A01 T01170006  RH  047%=      5-min Rain = 0
KST1 080135Z 16008KT 12/01 A3012 RMK A01 T01160007  RH  048%=      5-min Rain = 0
KST1 080140Z 16007KT 12/01 A3012 RMK A01 T01150007  RH  048%=      5-min Rain = 0
KST1 080145Z 16007KT 12/01 A3012 RMK A01 T01160009  RH  048%=      5-min Rain = 0
KST1 080150Z 16007KT 11/01 A3012 RMK A01 T01140008  RH  049%=      5-min Rain = 0
KST1 080155Z 16007KT 11/01 A3012 RMK A01 T01110007  RH  049%=      5-min Rain = 0
KST1 080200Z 17007KT 11/01 A3013 RMK A01 T01070006  RH  050%=      5-min Rain = 0
KST1 080205Z 17007KT 11/01 A3012 RMK A01 T01050006  RH  051%=      5-min Rain = 0
KST1 080210Z 16008KT 11/01 A3012 RMK A01 T01060008  RH  051%=      5-min Rain = 0
KST1 080215Z 16008KT 11/01 A3012 RMK A01 T01080009  RH  051%=      5-min Rain = 0
KST1 080220Z 16007KT 11/01 A3012 RMK A01 T01080009  RH  051%=      5-min Rain = 0
KST1 080225Z 16007KT 11/01 A3012 RMK A01 T01070009  RH  051%=      5-min Rain = 0
KST1 080230Z 16008KT 10/01 A3012 RMK A01 T01040008  RH  052%=      5-min Rain = 0
KST1 080235Z 17008KT 10/01 A3012 RMK A01 T01040009  RH  052%=      5-min Rain = 0
KST1 080240Z 17008KT 10/01 A3012 RMK A01 T01020008  RH  053%=      5-min Rain = 0
KST1 080245Z 16008KT 10/01 A3012 RMK A01 T01010009  RH  053%=      5-min Rain = 0
KST1 080250Z 16007KT 10/01 A3012 RMK A01 T01010009  RH  054%=      5-min Rain = 0
KST1 080255Z 16007KT 10/01 A3012 RMK A01 T01010010  RH  054%=      5-min Rain = 0
KST1 080300Z 16008KT 10/01 A3012 RMK A01 T01000010  RH  054%=      5-min Rain = 0
KST1 080305Z 16008KT 10/01 A3011 RMK A01 T00980009  RH  054%=      5-min Rain = 0
KST1 080310Z 17008KT 10/01 A3011 RMK A01 T00970009  RH  055%=      5-min Rain = 0
KST1 080315Z 17008KT 10/01 A3011 RMK A01 T00950009  RH  056%=      5-min Rain = 0
KST1 080320Z 16008KT 09/01 A3011 RMK A01 T00940009  RH  056%=      5-min Rain = 0
KST1 080325Z 16008KT 09/01 A3011 RMK A01 T00940010  RH  056%=      5-min Rain = 0
KST1 080330Z 16008KT 10/01 A3011 RMK A01 T00960011  RH  056%=      5-min Rain = 0
KST1 080335Z 17008KT 09/01 A3011 RMK A01 T00940010  RH  056%=      5-min Rain = 0
KST1 080340Z 17008KT 09/01 A3011 RMK A01 T00920011  RH  057%=      5-min Rain = 0
KST1 080345Z 17008KT 09/01 A3011 RMK A01 T00920011  RH  057%=      5-min Rain = 0
KST1 080350Z 17009KT 09/01 A3011 RMK A01 T00920011  RH  058%=      5-min Rain = 0
KST1 080355Z 17009KT 09/01 A3011 RMK A01 T00910011  RH  058%=      5-min Rain = 0
KST1 080400Z 17009KT 09/01 A3011 RMK A01 T00900011  RH  058%=      5-min Rain = 0
KST1 080405Z 17009KT 09/01 A301 RMK A01 T00900012  RH  059%=      5-min Rain = 0
KST1 080410Z 17009KT 09/01 A301 RMK A01 T00900012  RH  059%=      5-min Rain = 0
KST1 080415Z 17009KT 09/01 A301 RMK A01 T00890012  RH  059%=      5-min Rain = 0
KST1 080420Z 17008KT 09/01 A301 RMK A01 T00890013  RH  059%=      5-min Rain = 0
KST1 080425Z 17008KT 09/01 A301 RMK A01 T00890013  RH  060%=      5-min Rain = 0
KST1 080430Z 18009KT 09/02 A301 RMK A01 T00900015  RH  060%=      5-min Rain = 0
KST1 080435Z 18009KT 09/02 A301 RMK A01 T00920015  RH  059%=      5-min Rain = 0
KST1 080440Z 18009KT 09/02 A301 RMK A01 T00930016  RH  059%=      5-min Rain = 0
KST1 080445Z 18010KT 09/02 A301 RMK A01 T00930016  RH  059%=      5-min Rain = 0
KST1 080450Z 18010KT 09/02 A3009 RMK A01 T00940017  RH  059%=      5-min Rain = 0
KST1 080455Z 18010KT 10/02 A3009 RMK A01 T00950018  RH  059%=      5-min Rain = 0
KST1 080500Z 18010KT 10/02 A3009 RMK A01 T00960019  RH  059%=      5-min Rain = 0
KST1 080505Z 19010KT 10/02 A3009 RMK A01 T00980021  RH  059%=      5-min Rain = 0
KST1 080510Z 19010KT 10/02 A3009 RMK A01 T01020022  RH  058%=      5-min Rain = 0
KST1 080515Z 19010KT 10/02 A3009 RMK A01 T01020022  RH  058%=      5-min Rain = 0
KST1 080520Z 19009KT 10/02 A3009 RMK A01 T01010022  RH  059%=      5-min Rain = 0
KST1 080525Z 19010KT 10/02 A3009 RMK A01 T01020023  RH  059%=      5-min Rain = 0
KST1 080530Z 19010KT 10/02 A3009 RMK A01 T01040024  RH  058%=      5-min Rain = 0
KST1 080535Z 19010KT 10/02 A3008 RMK A01 T01040024  RH  058%=      5-min Rain = 0
KST1 080540Z 19010KT 10/02 A3008 RMK A01 T01030024  RH  059%=      5-min Rain = 0
KST1 080545Z 18010KT 10/02 A3008 RMK A01 T01030024  RH  059%=      5-min Rain = 0
KST1 080550Z 18010KT 10/02 A3008 RMK A01 T01030024  RH  059%=      5-min Rain = 0
KST1 080555Z 19010KT 10/03 A3008 RMK A01 T01040025  RH  059%=      5-min Rain = 0

Page generated in 0.0167 seconds.